createdAt,value
2023-08-14T00:01:46.092Z,16.30
2023-08-14T00:04:13.696Z,14.60
2023-08-14T00:06:41.351Z,15.50
2023-08-14T00:09:09.070Z,15.50
2023-08-14T00:11:36.693Z,15.50
2023-08-14T00:14:04.733Z,15.50
2023-08-14T00:16:32.553Z,15.40
2023-08-14T00:19:00.194Z,15.40
2023-08-14T00:21:27.902Z,15.40
2023-08-14T00:23:55.482Z,15.40
2023-08-14T00:26:23.050Z,15.40
2023-08-14T00:28:50.637Z,15.40
2023-08-14T00:31:18.546Z,15.30
2023-08-14T00:33:46.573Z,15.30
2023-08-14T00:36:14.189Z,15.30
2023-08-14T00:38:41.960Z,15.30
2023-08-14T00:41:09.940Z,14.70
2023-08-14T00:43:37.595Z,15.30
2023-08-14T00:46:06.562Z,16.30
2023-08-14T00:48:35.448Z,15.60
2023-08-14T00:51:03.449Z,16.20
2023-08-14T00:53:32.332Z,15.20
2023-08-14T00:56:02.159Z,15.10
2023-08-14T00:58:31.016Z,15.10
2023-08-14T01:00:59.662Z,15.10
2023-08-14T01:03:27.546Z,15.00
2023-08-14T01:05:56.639Z,15.00
2023-08-14T01:08:24.739Z,15.00
2023-08-14T01:11:37.831Z,15.00
2023-08-14T01:14:15.077Z,15.00
2023-08-14T01:16:49.473Z,15.10
2023-08-14T01:19:23.592Z,15.00
2023-08-14T01:22:18.515Z,15.00
2023-08-14T01:25:19.545Z,15.00
2023-08-14T01:27:47.926Z,15.00
2023-08-14T01:30:15.590Z,15.00
2023-08-14T01:32:43.336Z,15.00
2023-08-14T01:35:11.237Z,15.10
2023-08-14T01:38:01.819Z,15.00
2023-08-14T01:40:53.350Z,15.00
2023-08-14T01:43:31.501Z,15.00
2023-08-14T01:45:59.437Z,15.00
2023-08-14T01:48:28.758Z,15.00
2023-08-14T01:50:57.148Z,15.00
2023-08-14T01:53:24.754Z,15.00
2023-08-14T01:55:52.374Z,15.10
2023-08-14T01:58:20.181Z,15.10
2023-08-14T02:00:47.837Z,15.10
2023-08-14T02:03:15.513Z,15.10
2023-08-14T02:05:43.077Z,15.10
2023-08-14T14:00:58.546Z,17.80
2023-08-14T14:03:27.205Z,21.00
2023-08-14T14:05:54.795Z,21.20
2023-08-14T14:08:22.445Z,21.40
2023-08-14T14:10:49.941Z,21.60
2023-08-14T14:13:17.637Z,21.80
2023-08-14T14:15:45.248Z,21.90
2023-08-14T14:18:12.889Z,22.00
2023-08-14T14:20:40.564Z,22.00
2023-08-14T14:23:08.214Z,22.10
2023-08-14T14:25:36.078Z,19.60
2023-08-14T14:28:03.833Z,22.10
2023-08-14T14:30:31.481Z,22.10
2023-08-14T14:32:59.548Z,22.10
2023-08-14T14:35:28.542Z,21.30
2023-08-14T14:37:56.220Z,22.10
2023-08-14T14:40:26.571Z,22.10
2023-08-14T14:42:57.319Z,21.80
2023-08-14T14:45:34.176Z,22.00
2023-08-14T14:48:03.427Z,22.00
2023-08-14T14:50:31.441Z,21.90
2023-08-14T14:52:59.341Z,23.20
2023-08-14T14:55:30.945Z,22.10
2023-08-14T14:57:58.598Z,21.10
2023-08-14T15:00:27.211Z,24.10
2023-08-14T15:02:55.072Z,21.30
2023-08-14T15:05:28.546Z,22.00
2023-08-14T15:07:58.260Z,21.20
2023-08-14T15:10:27.097Z,22.40
2023-08-14T15:12:55.675Z,21.20
2023-08-14T15:15:23.592Z,21.20
2023-08-14T15:17:52.247Z,21.20
2023-08-14T15:20:19.992Z,21.20
2023-08-14T15:22:47.634Z,21.20
2023-08-14T15:25:15.467Z,22.90
2023-08-14T15:27:43.094Z,21.30
2023-08-14T15:30:11.104Z,20.40
2023-08-14T15:32:38.869Z,21.30
2023-08-14T15:35:07.264Z,21.20
2023-08-14T15:37:35.561Z,21.20
2023-08-14T15:40:05.356Z,20.80
2023-08-14T15:42:33.154Z,20.80
2023-08-14T15:47:28.776Z,21.00
2023-08-14T15:49:56.633Z,21.00
2023-08-14T15:52:29.760Z,20.10
2023-08-14T15:54:58.611Z,20.70
2023-08-14T15:57:26.906Z,20.50
2023-08-14T15:59:54.724Z,19.70
2023-08-14T16:02:22.746Z,20.50
2023-08-14T16:04:52.010Z,20.50
2023-08-14T16:07:20.532Z,20.30
2023-08-14T16:09:50.388Z,20.30
2023-08-14T16:12:18.339Z,20.30
2023-08-14T16:14:46.076Z,20.20
2023-08-14T16:17:13.750Z,20.20
2023-08-14T16:19:41.488Z,20.20
2023-08-14T16:22:09.474Z,18.90
2023-08-14T16:24:38.626Z,20.00
2023-08-14T16:27:06.806Z,19.20
2023-08-14T16:29:34.459Z,20.70
2023-08-14T16:32:01.991Z,18.50
2023-08-14T16:34:29.692Z,18.20
2023-08-14T16:36:57.224Z,18.10
2023-08-14T16:39:24.817Z,17.20
2023-08-14T16:41:52.550Z,17.80
2023-08-14T16:44:21.405Z,17.80
2023-08-14T16:46:48.979Z,17.70
2023-08-14T16:49:16.634Z,17.70
2023-08-14T16:51:44.192Z,17.70
2023-08-14T16:54:11.801Z,17.60
2023-08-14T16:56:40.049Z,16.90
2023-08-14T16:59:07.702Z,17.60
2023-08-14T17:01:35.482Z,16.70
2023-08-14T17:04:04.347Z,17.40
2023-08-14T17:06:32.144Z,14.90
2023-08-14T17:09:01.051Z,17.40
2023-08-14T17:11:28.655Z,17.40
2023-08-14T17:13:56.324Z,17.30
2023-08-14T17:16:23.958Z,17.30
2023-08-14T17:18:51.652Z,17.30
2023-08-14T17:21:19.197Z,17.30
2023-08-14T17:23:46.795Z,19.40
2023-08-14T17:26:14.368Z,17.90
2023-08-14T17:28:41.968Z,17.10
2023-08-14T17:31:09.519Z,17.30
2023-08-14T17:33:37.169Z,17.10
2023-08-14T17:36:05.125Z,17.10
2023-08-14T17:38:32.740Z,17.00
2023-08-14T17:41:00.457Z,17.00
2023-08-14T17:43:28.113Z,17.00
2023-08-14T17:45:56.427Z,17.00
2023-08-14T17:48:24.354Z,16.90
2023-08-14T17:50:52.911Z,16.90
2023-08-14T17:53:21.246Z,16.90
2023-08-14T17:55:49.033Z,14.80
2023-08-14T17:58:17.032Z,16.90
2023-08-14T18:00:49.135Z,14.70
2023-08-14T18:03:17.359Z,16.90
2023-08-14T18:05:52.488Z,16.80
2023-08-14T18:08:21.002Z,16.70
2023-08-14T18:10:48.948Z,16.60
2023-08-14T18:13:16.600Z,16.50
2023-08-14T18:15:44.354Z,17.50
2023-08-14T18:18:12.065Z,16.30
2023-08-14T18:20:39.688Z,16.20
2023-08-14T18:23:07.899Z,16.20
2023-08-14T18:25:35.517Z,16.10
2023-08-14T18:28:03.384Z,16.50
2023-08-14T18:30:32.805Z,16.00
2023-08-14T18:33:01.568Z,14.60
2023-08-14T18:35:29.327Z,15.90
2023-08-14T18:37:59.159Z,15.90
2023-08-14T18:40:27.067Z,15.90
2023-08-14T18:42:54.833Z,15.80
2023-08-14T18:45:22.421Z,15.80
2023-08-14T18:47:50.162Z,15.80
2023-08-14T18:50:18.303Z,15.80
2023-08-14T18:52:46.361Z,15.80
2023-08-14T18:55:14.105Z,15.70
2023-08-14T18:57:42.593Z,15.80
2023-08-14T19:00:11.244Z,15.70
2023-08-14T19:02:39.014Z,14.20
2023-08-14T19:05:07.488Z,15.70
2023-08-14T19:07:35.207Z,15.70
2023-08-14T19:10:02.852Z,15.70
2023-08-14T19:12:30.596Z,15.60
2023-08-14T19:19:55.607Z,15.30
2023-08-14T19:22:34.143Z,15.50
2023-08-14T19:25:01.958Z,15.50
2023-08-14T19:27:30.679Z,15.50
2023-08-14T19:29:58.426Z,15.60
2023-08-14T19:32:26.795Z,15.50
2023-08-14T19:34:54.457Z,15.50
2023-08-14T19:37:23.061Z,15.50
2023-08-14T19:39:50.707Z,15.50
2023-08-14T19:42:18.361Z,15.50
2023-08-14T19:44:45.955Z,15.50
2023-08-14T19:47:13.666Z,17.50
2023-08-14T19:49:41.224Z,15.50
2023-08-14T19:52:08.846Z,15.50
2023-08-14T19:54:36.452Z,15.50
2023-08-14T19:57:04.130Z,15.80
2023-08-14T19:59:31.717Z,15.40
2023-08-14T20:01:59.955Z,18.00
2023-08-14T20:04:27.842Z,17.90
2023-08-14T20:06:55.446Z,15.40
2023-08-14T20:09:23.054Z,17.00
2023-08-14T20:11:50.592Z,15.40
2023-08-14T20:14:19.320Z,15.40
2023-08-14T20:16:46.963Z,15.50
2023-08-14T20:19:15.287Z,15.50
2023-08-14T20:21:43.432Z,17.50
2023-08-14T20:24:11.029Z,15.40
2023-08-14T20:26:38.626Z,15.10
2023-08-14T20:29:06.375Z,15.40
2023-08-14T20:31:34.291Z,15.40
2023-08-14T20:34:01.955Z,15.40
2023-08-14T20:36:30.369Z,15.50
2023-08-14T20:38:58.192Z,15.40
2023-08-14T20:41:26.167Z,15.40
2023-08-14T20:43:53.734Z,15.40
2023-08-14T20:46:21.489Z,15.40
2023-08-14T20:48:49.320Z,15.40
2023-08-14T20:51:17.704Z,15.40
2023-08-14T20:53:45.623Z,15.40
2023-08-14T20:56:13.332Z,15.30
2023-08-14T20:58:40.998Z,15.30
2023-08-14T21:01:08.717Z,15.30
2023-08-14T21:03:36.438Z,17.60
2023-08-14T21:06:04.336Z,15.30
2023-08-14T21:08:32.008Z,14.60
2023-08-14T21:11:00.801Z,15.30
2023-08-14T21:13:30.412Z,13.40
2023-08-14T21:15:59.311Z,15.20
2023-08-14T21:18:26.970Z,15.20
2023-08-14T21:20:54.609Z,15.20
2023-08-14T21:23:22.601Z,15.20
2023-08-14T21:25:50.184Z,15.20
2023-08-14T21:28:17.878Z,15.20
2023-08-14T21:30:45.855Z,13.50
2023-08-14T21:33:13.830Z,15.10
2023-08-14T21:35:41.531Z,15.10
2023-08-14T21:38:09.331Z,15.10
2023-08-14T21:40:39.572Z,17.40
2023-08-14T21:43:07.236Z,13.50
2023-08-14T21:45:34.891Z,16.00
2023-08-14T21:48:02.713Z,15.00
2023-08-14T21:50:30.206Z,15.00
2023-08-14T21:52:57.752Z,13.40
2023-08-14T21:55:25.266Z,14.90
2023-08-14T21:57:52.794Z,14.90
2023-08-14T22:00:20.347Z,14.80
2023-08-14T22:02:48.030Z,14.80
2023-08-14T22:05:15.674Z,14.70
2023-08-14T22:07:43.269Z,14.70
2023-08-14T22:10:12.743Z,14.60
2023-08-14T22:12:45.285Z,14.60
2023-08-14T22:15:13.467Z,14.50
2023-08-14T22:17:41.043Z,14.60
2023-08-14T22:20:11.147Z,14.60
2023-08-14T22:22:39.141Z,14.60
2023-08-14T22:25:08.270Z,14.60
2023-08-14T22:27:35.873Z,14.50
2023-08-14T22:30:03.651Z,16.80
2023-08-14T22:32:31.651Z,17.30
2023-08-14T22:34:59.182Z,14.60
2023-08-14T22:37:26.820Z,14.60
2023-08-14T22:39:54.327Z,14.60
2023-08-14T22:42:21.876Z,14.60
2023-08-14T22:44:50.402Z,13.70
2023-08-14T22:47:18.441Z,14.60
2023-08-14T22:49:46.446Z,14.60
2023-08-14T22:52:14.097Z,14.60
2023-08-14T22:54:41.673Z,14.60
2023-08-14T22:57:09.976Z,14.60
2023-08-14T22:59:38.017Z,14.60
2023-08-14T23:02:05.749Z,14.60
2023-08-14T23:04:33.423Z,14.60
2023-08-14T23:07:01.103Z,14.60
2023-08-14T23:09:28.707Z,14.60
2023-08-14T23:11:56.301Z,14.60
2023-08-14T23:14:23.913Z,14.60
2023-08-14T23:16:51.565Z,14.50
2023-08-14T23:19:19.220Z,14.50
2023-08-14T23:21:46.823Z,14.40
2023-08-14T23:24:14.391Z,14.40
2023-08-14T23:26:41.922Z,14.30
2023-08-14T23:29:09.460Z,14.30
2023-08-14T23:31:37.190Z,11.20
2023-08-14T23:34:04.792Z,14.20
2023-08-14T23:36:32.500Z,14.10
2023-08-14T23:39:00.068Z,14.10
2023-08-14T23:41:27.663Z,14.00
2023-08-14T23:43:55.200Z,14.00
2023-08-14T23:46:22.820Z,14.00
2023-08-14T23:48:50.452Z,13.90
2023-08-14T23:51:18.051Z,13.90
2023-08-14T23:53:45.682Z,13.90
2023-08-14T23:56:13.197Z,13.90
2023-08-14T23:58:40.812Z,14.00
